Time;durP1;ratioP1;P1;durP2;ratioP2;P2;SDS_P1;SDS_P2;PMS_P1;PMS_P2;Temp;Humidity;BMP_temperature;BMP_pressure;BME280_temperature;BME280_humidity;BME280_pressure;Samples;Min_cycle;Max_cycle;Signal;HPM_P1;HPM_P2
2023/03/03 00:00:23;;;;;;;5.32;3.10;;;;;;;1.12;100.00;99259.63;5158138;27;20384;-64
2023/03/03 00:02:49;;;;;;;3.95;1.98;;;;;;;1.24;100.00;99255.63;5158210;27;20073;-69
2023/03/03 00:05:17;;;;;;;3.92;2.53;;;;;;;0.74;100.00;99255.50;5157752;27;20047;-65
2023/03/03 00:07:43;;;;;;;6.53;2.72;;;;;;;0.96;100.00;99262.91;5158037;27;20413;-65
2023/03/03 00:10:10;;;;;;;4.18;2.47;;;;;;;1.11;100.00;99262.63;5157830;27;20059;-68
2023/03/03 00:12:46;;;;;;;5.18;2.83;;;;;;;0.99;100.00;99260.41;5158222;27;20054;-67
2023/03/03 00:15:15;;;;;;;7.80;2.67;;;;;;;0.88;100.00;99254.41;5157658;27;20110;-66
2023/03/03 00:17:42;;;;;;;3.75;2.38;;;;;;;1.08;100.00;99255.13;5158185;27;20390;-70
2023/03/03 00:20:29;;;;;;;5.90;2.70;;;;;;;1.03;100.00;99244.41;5157586;27;20054;-70
2023/03/03 00:22:58;;;;;;;8.52;3.10;;;;;;;1.11;100.00;99254.53;5157818;27;20331;-70
2023/03/03 00:25:28;;;;;;;7.72;3.20;;;;;;;1.02;100.00;99245.53;5157946;27;20067;-68
2023/03/03 00:27:54;;;;;;;11.23;3.05;;;;;;;1.14;100.00;99245.84;5157512;27;20404;-68
2023/03/03 00:30:24;;;;;;;6.32;2.97;;;;;;;1.21;100.00;99242.72;5157734;27;20056;-70
2023/03/03 00:32:51;;;;;;;11.38;3.03;;;;;;;1.11;100.00;99230.22;5157610;27;20042;-70
2023/03/03 00:35:24;;;;;;;5.20;2.92;;;;;;;1.13;100.00;99223.44;5157783;27;20114;-71
2023/03/03 00:37:55;;;;;;;3.88;2.63;;;;;;;1.08;100.00;99215.44;5157457;27;20051;-67
2023/03/03 00:40:23;;;;;;;10.35;4.57;;;;;;;1.03;100.00;99218.22;5158460;27;20055;-68
2023/03/03 00:42:51;;;;;;;7.90;3.45;;;;;;;1.16;100.00;99213.91;5157627;27;20427;-70
2023/03/03 00:45:26;;;;;;;4.45;2.38;;;;;;;0.98;100.00;99210.22;5157630;27;20055;-65
2023/03/03 00:47:53;;;;;;;6.57;2.50;;;;;;;1.21;100.00;99221.91;5163006;27;20050;-65
2023/03/03 00:50:31;;;;;;;9.35;3.55;;;;;;;1.28;100.00;99208.81;5162295;27;20418;-65
2023/03/03 00:53:04;;;;;;;7.97;2.75;;;;;;;1.22;100.00;99188.41;5161563;27;20046;-69
2023/03/03 00:55:31;;;;;;;6.28;2.80;;;;;;;0.89;100.00;99179.63;5161073;27;20056;-65
2023/03/03 00:57:58;;;;;;;5.57;3.55;;;;;;;1.15;100.00;99196.91;5161265;27;20046;-68
2023/03/03 01:00:25;;;;;;;8.90;3.90;;;;;;;0.93;100.00;99189.53;5160924;27;20054;-70
2023/03/03 01:02:51;;;;;;;4.57;2.13;;;;;;;1.08;100.00;99176.84;5161580;27;20389;-67
2023/03/03 01:05:18;;;;;;;9.45;3.40;;;;;;;1.39;100.00;99169.66;5161025;27;20050;-66
2023/03/03 01:07:45;;;;;;;8.75;2.67;;;;;;;1.23;100.00;99154.88;5160643;27;20051;-70
2023/03/03 01:10:11;;;;;;;6.63;2.65;;;;;;;1.36;100.00;99140.56;5160584;27;20107;-65
2023/03/03 01:12:38;;;;;;;7.38;3.03;;;;;;;1.42;100.00;99133.94;5160762;27;20050;-66
2023/03/03 01:15:06;;;;;;;7.78;3.03;;;;;;;1.16;100.00;99111.31;5160853;27;20057;-68
2023/03/03 01:17:33;;;;;;;4.88;2.97;;;;;;;1.22;100.00;99117.41;5160553;27;20335;-70
2023/03/03 01:19:59;;;;;;;5.95;3.22;;;;;;;1.39;100.00;99106.75;5160758;27;20090;-70
2023/03/03 01:22:26;;;;;;;3.65;2.63;;;;;;;0.80;100.00;99060.81;5160399;27;20046;-67
2023/03/03 01:24:52;;;;;;;7.97;3.20;;;;;;;1.06;100.00;99081.81;5160928;27;20050;-68
2023/03/03 01:27:18;;;;;;;5.07;2.40;;;;;;;1.17;100.00;99085.91;5160423;27;20046;-68
2023/03/03 01:29:44;;;;;;;3.60;2.53;;;;;;;1.15;100.00;99071.91;5160694;27;20050;-66
2023/03/03 01:32:10;;;;;;;5.53;2.97;;;;;;;1.33;100.00;99068.25;5160229;27;20051;-70
2023/03/03 01:34:37;;;;;;;7.18;3.17;;;;;;;0.82;100.00;99022.72;5160388;27;20046;-65
2023/03/03 01:37:03;;;;;;;2.40;2.20;;;;;;;0.79;100.00;99067.28;5160177;27;20050;-70
2023/03/03 01:39:30;;;;;;;7.55;2.90;;;;;;;1.22;100.00;99083.09;5160392;27;20055;-66
2023/03/03 01:41:56;;;;;;;2.45;1.90;;;;;;;1.23;100.00;99057.66;5160290;27;20053;-69
2023/03/03 01:44:22;;;;;;;4.43;2.58;;;;;;;1.07;100.00;99059.94;5159995;27;20051;-66
2023/03/03 01:46:55;;;;;;;7.75;2.95;;;;;;;1.06;100.00;99039.44;5160372;27;20046;-69
2023/03/03 01:49:25;;;;;;;4.47;2.22;;;;;;;1.22;100.00;99022.88;5159880;27;20046;-67
2023/03/03 01:51:56;;;;;;;8.38;3.08;;;;;;;1.04;100.00;98974.16;5160325;27;20050;-70
2023/03/03 01:54:29;;;;;;;4.50;2.28;;;;;;;1.13;100.00;98980.44;5159862;27;20111;-66
2023/03/03 01:57:00;;;;;;;6.65;3.03;;;;;;;1.11;100.00;99008.84;5160333;27;20325;-70
2023/03/03 01:59:29;;;;;;;4.78;2.60;;;;;;;1.29;100.00;98991.63;5160089;27;20051;-65
2023/03/03 02:01:55;;;;;;;4.38;2.78;;;;;;;1.13;100.00;98968.81;5158742;27;20057;-68
2023/03/03 02:04:22;;;;;;;4.82;2.75;;;;;;;0.86;100.00;98943.53;5160107;27;20121;-66
2023/03/03 02:06:54;;;;;;;6.43;2.55;;;;;;;0.59;100.00;98976.00;5159867;27;20050;-67
2023/03/03 02:09:30;;;;;;;2.97;2.63;;;;;;;0.84;100.00;99001.63;5160025;27;20467;-66
2023/03/03 02:12:00;;;;;;;3.33;2.42;;;;;;;0.90;100.00;98989.59;5159710;27;20046;-68
2023/03/03 02:14:27;;;;;;;6.78;3.63;;;;;;;0.82;100.00;98987.63;5160165;27;20058;-66
2023/03/03 02:16:54;;;;;;;5.25;2.83;;;;;;;0.87;100.00;98992.91;5159567;27;20061;-66
2023/03/03 02:19:25;;;;;;;11.05;2.65;;;;;;;0.86;100.00;98978.59;5160028;27;20051;-70
2023/03/03 02:21:52;;;;;;;4.47;2.45;;;;;;;0.42;100.00;98963.94;5159457;27;20548;-66
2023/03/03 02:24:26;;;;;;;4.95;2.65;;;;;;;0.64;100.00;98995.56;5159477;27;20444;-69
2023/03/03 02:26:54;;;;;;;8.82;3.65;;;;;;;0.64;100.00;98992.88;5159670;27;20065;-68
2023/03/03 02:29:20;;;;;;;5.60;2.53;;;;;;;0.24;100.00;99002.63;5159439;27;20047;-65
2023/03/03 02:31:46;;;;;;;11.70;3.33;;;;;;;0.40;100.00;99030.06;5159484;27;20058;-70
2023/03/03 02:34:12;;;;;;;7.68;3.15;;;;;;;0.40;100.00;99043.53;5159290;27;20050;-66
2023/03/03 02:36:39;;;;;;;4.68;2.92;;;;;;;0.45;100.00;99041.53;5159601;27;20047;-70
2023/03/03 02:39:10;;;;;;;4.25;2.60;;;;;;;0.44;100.00;99037.25;5159153;27;20079;-71
2023/03/03 02:41:40;;;;;;;5.85;2.90;;;;;;;0.33;100.00;99025.06;5159573;27;20057;-70
2023/03/03 02:44:09;;;;;;;9.73;3.15;;;;;;;0.26;100.00;99034.66;5159071;27;20060;-67
2023/03/03 02:46:38;;;;;;;10.18;3.50;;;;;;;0.34;100.00;99036.66;5159295;27;20115;-68
2023/03/03 02:49:06;;;;;;;4.32;2.78;;;;;;;0.33;100.00;99040.44;5159171;27;20105;-70
2023/03/03 02:51:32;;;;;;;7.20;3.17;;;;;;;0.24;100.00;99037.66;5158963;27;20061;-65
2023/03/03 02:53:58;;;;;;;5.55;2.40;;;;;;;0.14;100.00;99046.75;5159259;27;20057;-66
2023/03/03 02:56:25;;;;;;;4.75;3.15;;;;;;;-0.03;100.00;99060.81;5159035;27;20065;-69
2023/03/03 02:58:51;;;;;;;4.05;2.33;;;;;;;0.13;100.00;99092.84;5159134;27;20042;-64
2023/03/03 03:01:18;;;;;;;4.13;2.63;;;;;;;0.07;100.00;99088.66;5158984;27;20061;-68
2023/03/03 03:03:45;;;;;;;8.30;3.45;;;;;;;0.13;100.00;99098.25;5159362;27;20043;-70
2023/03/03 03:06:11;;;;;;;7.07;3.10;;;;;;;0.24;100.00;99099.69;5158680;27;20119;-69
2023/03/03 03:08:37;;;;;;;4.03;2.95;;;;;;;0.41;100.00;99096.41;5159194;27;20054;-66
2023/03/03 03:11:05;;;;;;;8.63;3.20;;;;;;;0.50;100.00;99086.50;5158551;27;20055;-70
2023/03/03 03:13:32;;;;;;;5.25;2.70;;;;;;;0.39;100.00;99077.00;5158828;27;20134;-66
2023/03/03 03:15:58;;;;;;;5.55;3.33;;;;;;;0.35;100.00;99071.41;5158592;27;20054;-70
2023/03/03 03:18:26;;;;;;;3.75;2.58;;;;;;;0.50;100.00;99059.53;5158977;27;20050;-71
2023/03/03 03:20:52;;;;;;;8.85;2.90;;;;;;;0.29;100.00;99058.31;5158815;27;20423;-70
2023/03/03 03:23:20;;;;;;;10.82;3.13;;;;;;;0.65;100.00;99061.91;5158437;27;20058;-65
2023/03/03 03:25:47;;;;;;;4.78;2.42;;;;;;;0.66;100.00;99039.22;5158805;27;20061;-64
2023/03/03 03:28:16;;;;;;;5.57;3.70;;;;;;;0.41;100.00;99034.38;5158472;27;20051;-65
2023/03/03 03:30:44;;;;;;;8.45;3.78;;;;;;;0.47;100.00;99020.47;5158609;27;20118;-70
2023/03/03 03:33:11;;;;;;;7.38;3.90;;;;;;;0.26;100.00;99005.78;5158575;27;20047;-69
2023/03/03 03:35:39;;;;;;;5.32;3.10;;;;;;;0.36;100.00;99002.09;5158716;27;20043;-66
2023/03/03 03:38:05;;;;;;;3.42;2.25;;;;;;;0.52;100.00;99007.97;5158209;27;20046;-70
2023/03/03 03:40:31;;;;;;;5.68;3.15;;;;;;;0.70;100.00;98999.75;5158685;27;20122;-66
2023/03/03 03:42:57;;;;;;;3.97;2.42;;;;;;;0.73;100.00;98978.66;5158470;27;20374;-70
2023/03/03 03:45:24;;;;;;;5.38;2.90;;;;;;;0.68;100.00;98958.78;5158105;27;20061;-64
2023/03/03 03:47:50;;;;;;;5.80;2.65;;;;;;;0.74;100.00;98953.28;5158083;27;20042;-71
2023/03/03 03:50:16;;;;;;;3.85;2.33;;;;;;;0.88;100.00;98932.44;5158020;27;20054;-66
2023/03/03 03:52:44;;;;;;;6.43;3.20;;;;;;;0.92;100.00;98901.03;5158233;27;20452;-70
2023/03/03 03:55:10;;;;;;;4.68;2.88;;;;;;;1.00;100.00;98878.69;5157967;27;20426;-69
2023/03/03 03:57:36;;;;;;;4.78;2.20;;;;;;;1.00;100.00;98854.41;5158617;27;20051;-66
2023/03/03 04:00:03;;;;;;;3.70;2.38;;;;;;;0.92;100.00;98861.31;5158027;27;20082;-70
2023/03/03 04:02:30;;;;;;;3.90;2.88;;;;;;;0.96;100.00;98847.22;5158659;27;20046;-68
2023/03/03 04:04:56;;;;;;;6.10;2.90;;;;;;;1.10;100.00;98840.66;5157922;27;20086;-68
2023/03/03 04:07:22;;;;;;;4.20;2.50;;;;;;;1.06;100.00;98819.97;5158355;27;20051;-70
2023/03/03 04:09:49;;;;;;;5.30;2.83;;;;;;;1.00;100.00;98834.69;5158090;27;20046;-66
2023/03/03 04:12:16;;;;;;;6.95;2.55;;;;;;;1.10;100.00;98824.44;5159487;27;20047;-67
2023/03/03 04:14:42;;;;;;;6.88;2.75;;;;;;;1.04;100.00;98804.09;5159569;27;20369;-67
2023/03/03 04:17:14;;;;;;;5.03;2.42;;;;;;;1.03;100.00;98807.09;5157570;27;20313;-67
2023/03/03 04:19:41;;;;;;;5.82;2.83;;;;;;;0.87;100.00;98791.31;5158071;27;20061;-65
2023/03/03 04:22:07;;;;;;;4.70;2.95;;;;;;;0.91;100.00;98827.34;5157730;27;20339;-71
2023/03/03 04:24:33;;;;;;;2.83;2.05;;;;;;;0.99;100.00;98814.22;5158865;27;20328;-65
2023/03/03 04:27:00;;;;;;;6.80;3.00;;;;;;;1.07;100.00;98803.47;5161279;27;20055;-70
2023/03/03 04:29:26;;;;;;;6.57;2.75;;;;;;;0.99;100.00;98803.41;5161872;27;20050;-70
2023/03/03 04:31:52;;;;;;;3.78;2.70;;;;;;;1.23;100.00;98803.84;5161167;27;20046;-67
2023/03/03 04:34:19;;;;;;;6.75;2.60;;;;;;;1.26;100.00;98772.72;5161708;27;20058;-70
2023/03/03 04:36:45;;;;;;;9.88;4.00;;;;;;;0.99;100.00;98755.63;5161358;27;20095;-66
2023/03/03 04:39:11;;;;;;;3.22;2.42;;;;;;;1.17;100.00;98748.41;5161335;27;20310;-70
2023/03/03 04:41:38;;;;;;;4.88;2.45;;;;;;;1.03;100.00;98726.88;5161316;27;20391;-69
2023/03/03 04:44:05;;;;;;;6.43;3.47;;;;;;;0.88;100.00;98725.41;5160933;27;20056;-64
2023/03/03 04:46:31;;;;;;;7.50;3.00;;;;;;;0.65;100.00;98772.44;5161128;27;20308;-68
2023/03/03 04:48:57;;;;;;;5.30;2.90;;;;;;;0.91;100.00;98818.47;5160937;27;20053;-66
2023/03/03 04:51:23;;;;;;;4.72;2.47;;;;;;;1.15;100.00;98820.81;5161024;27;20103;-68
2023/03/03 04:53:50;;;;;;;4.15;2.53;;;;;;;1.10;100.00;98791.22;5160770;27;20051;-64
2023/03/03 04:56:16;;;;;;;2.60;2.33;;;;;;;0.82;100.00;98777.13;5160954;27;20047;-67
2023/03/03 04:58:42;;;;;;;4.80;2.80;;;;;;;0.65;100.00;98812.91;5160709;27;20066;-63
2023/03/03 05:01:12;;;;;;;10.32;4.00;;;;;;;1.06;100.00;98838.84;5161089;27;20058;-70
2023/03/03 05:03:39;;;;;;;4.32;2.92;;;;;;;1.17;100.00;98819.41;5160533;27;20127;-67
2023/03/03 05:06:06;;;;;;;3.90;2.75;;;;;;;0.83;100.00;98811.09;5160649;27;20073;-68
2023/03/03 05:08:32;;;;;;;7.97;3.05;;;;;;;0.68;100.00;98826.56;5160814;27;20106;-64
2023/03/03 05:11:00;;;;;;;6.20;3.42;;;;;;;0.82;100.00;98844.59;5160678;27;20057;-68
2023/03/03 05:13:26;;;;;;;3.70;2.63;;;;;;;1.01;100.00;98850.59;5160841;27;20051;-68
2023/03/03 05:15:54;;;;;;;4.63;2.80;;;;;;;1.00;100.00;98834.69;5160374;27;20058;-64
2023/03/03 05:18:22;;;;;;;6.22;2.78;;;;;;;0.91;100.00;98824.66;5160636;27;20046;-66
2023/03/03 05:20:49;;;;;;;8.30;2.88;;;;;;;0.90;100.00;98820.38;5160410;27;20331;-69
2023/03/03 05:23:15;;;;;;;4.57;2.53;;;;;;;1.12;100.00;98819.50;5160715;27;20047;-70
2023/03/03 05:25:42;;;;;;;3.90;2.92;;;;;;;1.22;100.00;98790.66;5160335;27;20055;-67
2023/03/03 05:28:09;;;;;;;7.05;3.45;;;;;;;1.05;100.00;98765.19;5160788;27;20320;-66
2023/03/03 05:30:35;;;;;;;4.68;2.28;;;;;;;1.05;100.00;98802.19;5160068;27;20355;-67
2023/03/03 05:33:02;;;;;;;6.45;2.78;;;;;;;1.22;100.00;98777.94;5160575;27;20051;-66
2023/03/03 05:35:31;;;;;;;3.58;2.53;;;;;;;1.18;100.00;98766.97;5159135;27;20057;-71
2023/03/03 05:37:57;;;;;;;4.72;2.75;;;;;;;1.07;100.00;98779.16;5159778;27;20115;-68
2023/03/03 05:40:24;;;;;;;5.70;3.13;;;;;;;1.14;100.00;98786.81;5160111;27;20054;-65
2023/03/03 05:42:50;;;;;;;5.78;3.25;;;;;;;1.26;100.00;98781.59;5160124;27;20043;-67
2023/03/03 05:45:19;;;;;;;7.28;3.60;;;;;;;1.29;100.00;98766.69;5160129;27;20193;-66
2023/03/03 05:47:45;;;;;;;8.57;3.92;;;;;;;1.39;100.00;98742.88;5159985;27;20344;-70
2023/03/03 05:50:11;;;;;;;3.67;3.00;;;;;;;1.19;100.00;98724.56;5160112;27;20050;-64
2023/03/03 05:52:38;;;;;;;6.05;3.08;;;;;;;1.12;100.00;98726.94;5159807;27;20047;-65
2023/03/03 05:55:05;;;;;;;12.80;3.65;;;;;;;1.24;100.00;98734.44;5159874;27;20046;-66
2023/03/03 05:57:32;;;;;;;8.45;4.93;;;;;;;1.12;100.00;98705.34;5159544;27;20054;-67
2023/03/03 05:59:58;;;;;;;10.07;4.15;;;;;;;1.13;100.00;98717.72;5160053;27;20050;-67
2023/03/03 06:02:24;;;;;;;7.90;3.97;;;;;;;1.47;100.00;98711.63;5159945;27;20137;-66
2023/03/03 06:04:50;;;;;;;6.18;3.97;;;;;;;1.32;100.00;98634.53;5159698;27;20140;-69
2023/03/03 06:07:17;;;;;;;10.73;3.50;;;;;;;1.56;100.00;98598.13;5159812;27;20047;-66
2023/03/03 06:09:43;;;;;;;3.70;2.25;;;;;;;1.46;100.00;98566.06;5159697;27;20138;-67
2023/03/03 06:12:10;;;;;;;6.63;4.05;;;;;;;1.59;100.00;98557.78;5159709;27;20047;-69
2023/03/03 06:14:36;;;;;;;6.82;3.13;;;;;;;1.61;100.00;98525.03;5159615;27;20073;-63
2023/03/03 06:17:02;;;;;;;4.32;2.13;;;;;;;1.60;100.00;98497.25;5159593;27;20070;-70
2023/03/03 06:19:29;;;;;;;5.45;3.58;;;;;;;1.48;100.00;98453.09;5159348;27;20444;-65
2023/03/03 06:21:55;;;;;;;9.65;3.42;;;;;;;1.51;100.00;98436.25;5159631;27;20086;-66
2023/03/03 06:24:24;;;;;;;2.53;2.33;;;;;;;1.52;100.00;98429.72;5159177;27;20047;-66
2023/03/03 06:26:51;;;;;;;6.57;3.72;;;;;;;1.66;100.00;98435.69;5159771;27;20047;-65
2023/03/03 06:29:17;;;;;;;5.65;3.30;;;;;;;1.64;100.00;98390.09;5159152;27;20047;-68
2023/03/03 06:31:43;;;;;;;7.22;3.67;;;;;;;1.81;100.00;98331.69;5159151;27;20057;-65
2023/03/03 06:34:10;;;;;;;5.53;3.92;;;;;;;2.04;100.00;98297.81;5159160;27;20062;-65
2023/03/03 06:36:36;;;;;;;12.63;7.07;;;;;;;1.88;100.00;98231.94;5159250;27;20047;-70
2023/03/03 06:39:03;;;;;;;5.93;3.08;;;;;;;2.12;100.00;98240.16;5159130;27;20051;-63
2023/03/03 06:41:29;;;;;;;2.92;2.70;;;;;;;2.18;100.00;98153.44;5159085;27;20047;-62
2023/03/03 06:43:57;;;;;;;6.55;4.28;;;;;;;2.16;100.00;98139.47;5159249;27;20050;-65
2023/03/03 06:46:23;;;;;;;8.10;3.55;;;;;;;2.41;100.00;98107.84;5159068;27;20054;-65
2023/03/03 06:48:49;;;;;;;4.78;3.03;;;;;;;2.57;100.00;98055.44;5158805;27;20141;-69
2023/03/03 06:51:22;;;;;;;4.40;3.20;;;;;;;2.63;100.00;97972.09;5158687;27;20149;-63
2023/03/03 06:53:50;;;;;;;5.03;3.17;;;;;;;2.48;100.00;97970.13;5159438;27;20046;-68
2023/03/03 06:56:17;;;;;;;7.93;4.57;;;;;;;2.28;100.00;97969.91;5158581;27;20057;-66
2023/03/03 06:58:44;;;;;;;8.80;3.15;;;;;;;2.69;100.00;97916.63;5158865;27;20379;-64
2023/03/03 07:01:16;;;;;;;9.57;3.72;;;;;;;2.73;100.00;97824.72;5158645;27;20319;-66
2023/03/03 07:03:42;;;;;;;5.20;3.38;;;;;;;2.95;100.00;97771.94;5158569;27;20059;-60
2023/03/03 07:06:18;;;;;;;5.25;3.53;;;;;;;2.52;100.00;97741.06;5158335;27;20301;-63
2023/03/03 07:08:44;;;;;;;5.60;3.38;;;;;;;2.69;100.00;97751.56;5158360;27;20082;-59
2023/03/03 07:11:15;;;;;;;5.75;3.00;;;;;;;2.79;100.00;97783.53;5158598;27;20061;-67
2023/03/03 07:13:46;;;;;;;6.82;3.20;;;;;;;2.99;100.00;97740.31;5158253;27;20427;-63
2023/03/03 07:16:14;;;;;;;5.18;3.15;;;;;;;3.05;100.00;97677.44;5158651;27;20296;-65
2023/03/03 07:18:49;;;;;;;4.68;3.35;;;;;;;3.17;100.00;97627.03;5158705;27;20055;-65
2023/03/03 07:21:18;;;;;;;8.65;3.60;;;;;;;2.86;100.00;97585.34;5158076;27;20447;-64
2023/03/03 07:23:46;;;;;;;4.28;3.28;;;;;;;2.88;100.00;97558.72;5158134;27;20046;-66
2023/03/03 07:26:14;;;;;;;6.35;3.38;;;;;;;2.71;100.00;97597.75;5158269;27;20110;-62
2023/03/03 07:28:43;;;;;;;4.15;3.20;;;;;;;3.06;100.00;97591.56;5158299;27;20089;-64
2023/03/03 07:31:38;;;;;;;3.78;2.95;;;;;;;2.74;100.00;97572.72;5157906;27;20064;-66
2023/03/03 07:34:16;;;;;;;5.00;2.72;;;;;;;3.09;100.00;97581.97;5099826;27;20054;-64
2023/03/03 07:36:43;;;;;;;4.13;3.20;;;;;;;2.68;100.00;97554.38;5158486;27;20057;-60
2023/03/03 07:39:24;;;;;;;5.97;2.75;;;;;;;2.78;100.00;97572.78;5158331;27;20046;-68
2023/03/03 07:41:51;;;;;;;5.07;2.30;;;;;;;2.95;100.00;97572.41;5158195;27;20110;-66
2023/03/03 07:44:21;;;;;;;7.68;4.30;;;;;;;3.05;100.00;97549.41;5157889;27;20046;-68
2023/03/03 07:46:49;;;;;;;9.07;3.35;;;;;;;2.87;100.00;97537.41;5158095;27;20149;-65
2023/03/03 07:49:23;;;;;;;7.82;3.45;;;;;;;3.20;100.00;97532.31;5157836;27;20404;-71
2023/03/03 07:51:52;;;;;;;;;;;;;;;3.18;100.00;97526.47;5158766;27;20050;-67
2023/03/03 07:54:31;;;;;;;7.80;4.25;;;;;;;3.58;100.00;97527.25;5157863;27;19929;-75
2023/03/03 07:57:01;;;;;;;7.85;2.50;;;;;;;3.60;100.00;97528.47;5158388;27;20046;-65
2023/03/03 07:59:27;;;;;;;2.60;2.00;;;;;;;3.43;100.00;97540.53;5156676;27;20047;-68
2023/03/03 08:01:57;;;;;;;10.55;2.55;;;;;;;2.94;100.00;97553.81;5157688;27;20054;-67
2023/03/03 08:04:27;;;;;;;2.28;2.08;;;;;;;2.86;100.00;97554.78;5158008;27;20046;-71
2023/03/03 08:06:55;;;;;;;6.10;3.00;;;;;;;2.80;100.00;97557.00;5157381;27;20061;-70
2023/03/03 08:09:42;;;;;;;4.03;2.75;;;;;;;2.72;100.00;97569.56;5157759;27;20047;-67
2023/03/03 08:12:40;;;;;;;7.90;3.10;;;;;;;2.42;100.00;97580.06;5157754;27;20073;-70
2023/03/03 08:15:24;;;;;;;5.50;2.50;;;;;;;2.98;100.00;97593.34;5150682;27;20047;-64
2023/03/03 08:17:53;;;;;;;3.17;2.50;;;;;;;2.98;100.00;97579.03;5157682;27;20130;-69
2023/03/03 08:20:47;;;;;;;6.90;2.47;;;;;;;3.02;100.00;97575.25;5157572;27;20084;-67
2023/03/03 08:23:15;;;;;;;4.55;3.05;;;;;;;2.85;100.00;97577.56;5157688;27;20042;-63
2023/03/03 08:25:42;;;;;;;3.58;2.78;;;;;;;2.98;100.00;97568.97;5157426;27;20077;-68
2023/03/03 08:28:08;;;;;;;3.50;2.40;;;;;;;3.00;100.00;97574.03;5157702;27;20042;-67
2023/03/03 08:30:35;;;;;;;4.53;3.00;;;;;;;3.17;100.00;97579.06;5157100;27;20107;-65
2023/03/03 08:33:02;;;;;;;5.55;2.85;;;;;;;3.08;100.00;97580.41;5157741;27;20069;-65
2023/03/03 08:35:28;;;;;;;8.90;3.42;;;;;;;3.34;100.00;97572.47;5157158;27;20047;-63
2023/03/03 08:37:54;;;;;;;7.22;2.55;;;;;;;3.08;100.00;97567.66;5157066;27;20055;-64
2023/03/03 08:40:20;;;;;;;3.70;2.47;;;;;;;3.10;100.00;97567.28;5157424;27;20054;-64
2023/03/03 08:42:47;;;;;;;6.05;3.10;;;;;;;3.04;100.00;97551.34;5157090;27;20050;-63
2023/03/03 08:45:14;;;;;;;5.10;2.53;;;;;;;3.35;100.00;97551.56;5157120;27;20404;-62
2023/03/03 08:47:41;;;;;;;9.20;3.15;;;;;;;3.57;100.00;97556.28;5157258;27;20085;-66
2023/03/03 08:50:09;;;;;;;8.95;2.20;;;;;;;3.80;100.00;97566.34;5156944;27;20042;-61
2023/03/03 08:52:36;;;;;;;7.40;2.75;;;;;;;4.06;100.00;97549.41;5156894;27;20043;-64
2023/03/03 08:55:02;;;;;;;5.47;2.38;;;;;;;4.34;100.00;97570.81;5157458;27;20051;-65
2023/03/03 08:57:28;;;;;;;4.47;2.50;;;;;;;4.33;100.00;97599.06;5156981;27;20051;-60
2023/03/03 08:59:55;;;;;;;6.30;2.90;;;;;;;4.30;100.00;97624.22;5157423;27;20097;-65
2023/03/03 09:02:21;;;;;;;3.85;2.72;;;;;;;4.08;100.00;97621.13;5156936;27;20050;-61
2023/03/03 09:04:47;;;;;;;10.43;3.88;;;;;;;4.41;100.00;97595.34;5156847;27;20042;-64
2023/03/03 09:07:14;;;;;;;5.25;2.50;;;;;;;4.40;100.00;97581.00;5157139;27;20072;-60
2023/03/03 09:09:40;;;;;;;4.07;2.88;;;;;;;4.52;100.00;97592.81;5156891;27;20042;-64
2023/03/03 09:12:15;;;;;;;3.85;2.30;;;;;;;4.64;100.00;97601.56;5160338;27;20400;-61
2023/03/03 09:14:42;;;;;;;4.85;2.20;;;;;;;4.28;100.00;97613.72;5160371;27;20050;-60
2023/03/03 09:17:22;;;;;;;6.50;2.72;;;;;;;3.92;100.00;97601.44;5160590;27;20052;-62
2023/03/03 09:19:49;;;;;;;2.15;1.60;;;;;;;3.90;100.00;97580.13;5160115;27;20354;-61
2023/03/03 09:22:19;;;;;;;6.28;3.70;;;;;;;3.60;100.00;97554.75;5160569;27;20043;-63
2023/03/03 09:24:47;;;;;;;3.95;2.40;;;;;;;3.88;100.00;97536.31;5159910;27;20051;-62
2023/03/03 09:27:17;;;;;;;6.10;3.03;;;;;;;3.79;100.00;97546.59;5160078;27;20472;-65
2023/03/03 09:29:44;;;;;;;4.97;3.00;;;;;;;3.90;100.00;97560.34;5160062;27;20110;-64
2023/03/03 09:32:26;;;;;;;3.35;1.55;;;;;;;3.76;100.00;97572.50;5160197;27;20114;-60
2023/03/03 09:34:52;;;;;;;4.13;2.13;;;;;;;3.56;100.00;97557.41;5160090;27;20065;-64
2023/03/03 09:37:22;;;;;;;6.40;2.50;;;;;;;3.48;100.00;97542.94;5159936;27;20393;-64
2023/03/03 09:39:50;;;;;;;16.13;3.78;;;;;;;3.61;100.00;97540.84;5160223;27;20046;-63
2023/03/03 09:42:45;;;;;;;5.75;2.47;;;;;;;3.83;100.00;97531.19;5159967;27;20467;-67
2023/03/03 09:45:41;;;;;;;4.80;2.83;;;;;;;3.89;100.00;97532.47;5154599;27;20589;-58
2023/03/03 09:48:41;;;;;;;6.45;2.92;;;;;;;4.15;100.00;97520.91;5156368;27;20057;-70
2023/03/03 09:51:40;;;;;;;9.65;3.85;;;;;;;4.22;100.00;97531.88;5159628;27;20484;-65
2023/03/03 09:54:29;;;;;;;9.73;4.50;;;;;;;4.04;100.00;97502.91;5151752;27;20057;-64
2023/03/03 09:57:04;;;;;;;4.20;2.88;;;;;;;3.89;100.00;97494.50;5159649;27;20415;-64
2023/03/03 09:59:43;;;;;;;4.47;1.98;;;;;;;4.03;100.00;97504.81;5159629;27;20070;-61
2023/03/03 10:02:27;;;;;;;3.22;2.30;;;;;;;4.37;100.00;97516.63;5159871;27;20043;-60
2023/03/03 10:05:14;;;;;;;5.30;2.35;;;;;;;3.95;100.00;97522.88;5159476;27;20369;-67
2023/03/03 10:07:54;;;;;;;5.07;3.28;;;;;;;3.79;100.00;97500.53;5159655;27;20106;-63
2023/03/03 10:10:44;;;;;;;5.72;3.05;;;;;;;4.05;100.00;97491.69;5159602;27;20058;-61
2023/03/03 10:13:22;;;;;;;7.75;2.58;;;;;;;3.83;100.00;97489.75;5156129;27;20050;-66
2023/03/03 10:16:05;;;;;;;9.75;3.08;;;;;;;3.96;100.00;97488.41;5159614;27;20057;-66
2023/03/03 10:18:38;;;;;;;3.78;2.22;;;;;;;4.14;100.00;97488.72;5159721;27;20050;-64
2023/03/03 10:21:10;;;;;;;7.83;2.77;;;;;;;4.05;100.00;97493.59;5159224;27;20145;-62
2023/03/03 10:23:51;;;;;;;4.65;2.83;;;;;;;4.45;100.00;97501.22;5158235;27;20602;-62
2023/03/03 10:26:33;;;;;;;6.60;2.83;;;;;;;4.38;100.00;97492.97;5159378;27;20103;-65
2023/03/03 10:29:15;;;;;;;12.35;2.38;;;;;;;4.84;100.00;97501.78;5159321;27;20430;-63
2023/03/03 10:31:51;;;;;;;6.78;2.70;;;;;;;5.02;100.00;97556.34;5158984;27;20051;-59
2023/03/03 10:34:40;;;;;;;7.90;2.38;;;;;;;5.04;100.00;97547.84;5159285;27;20046;-57
2023/03/03 10:37:11;;;;;;;4.45;2.88;;;;;;;4.95;100.00;97567.88;5158931;27;20043;-62
2023/03/03 10:40:04;;;;;;;8.43;3.13;;;;;;;5.01;100.00;97552.06;5158996;27;20114;-59
2023/03/03 10:42:58;;;;;;;5.82;3.28;;;;;;;5.00;100.00;97564.09;5159169;27;20399;-63
2023/03/03 10:45:59;;;;;;;6.00;3.10;;;;;;;5.02;100.00;97590.88;5153565;27;20050;-60
2023/03/03 10:48:53;;;;;;;8.75;2.78;;;;;;;4.70;100.00;97594.66;5124004;27;20330;-69
2023/03/03 10:51:27;;;;;;;3.78;2.63;;;;;;;4.66;100.00;97598.47;5159493;27;20051;-66
2023/03/03 10:54:07;;;;;;;6.90;3.47;;;;;;;4.77;100.00;97591.28;5159463;27;20137;-66
2023/03/03 10:56:43;;;;;;;4.70;2.88;;;;;;;4.60;100.00;97606.16;5159259;27;20043;-60
2023/03/03 10:59:27;;;;;;;5.90;2.30;;;;;;;4.72;100.00;97610.59;5158770;27;20368;-65
2023/03/03 11:01:58;;;;;;;6.17;2.37;;;;;;;4.09;100.00;97603.69;5158674;27;20093;-62
2023/03/03 11:04:48;;;;;;;3.38;1.98;;;;;;;4.17;100.00;97566.66;5158532;27;20515;-63
2023/03/03 11:07:21;;;;;;;5.90;2.17;;;;;;;3.97;100.00;97550.44;5158533;27;20061;-67
2023/03/03 11:10:00;;;;;;;4.25;2.40;;;;;;;3.94;100.00;97528.69;5158854;27;20496;-62
2023/03/03 11:12:36;;;;;;;6.05;2.42;;;;;;;3.83;100.00;97512.22;5158266;27;20047;-64
2023/03/03 11:15:20;;;;;;;3.80;2.50;;;;;;;3.75;100.00;97499.69;5158776;27;20311;-60
2023/03/03 11:17:58;;;;;;;6.32;2.30;;;;;;;3.72;100.00;97484.13;5158184;27;20400;-59
2023/03/03 11:20:34;;;;;;;5.57;2.17;;;;;;;3.50;100.00;97478.34;5158250;27;20053;-62
2023/03/03 11:23:07;;;;;;;9.30;3.13;;;;;;;3.43;100.00;97451.13;5158587;27;20053;-66
2023/03/03 11:25:43;;;;;;;4.65;2.55;;;;;;;4.03;100.00;97450.56;5158114;27;20309;-63
2023/03/03 11:28:28;;;;;;;4.68;2.50;;;;;;;4.19;100.00;97459.34;5158406;27;20138;-64
2023/03/03 11:31:18;;;;;;;4.90;1.70;;;;;;;4.19;100.00;97474.84;5157984;27;20072;-65
2023/03/03 11:33:53;;;;;;;5.25;2.17;;;;;;;3.87;100.00;97471.63;5157747;27;20054;-60
2023/03/03 11:36:26;;;;;;;6.05;3.33;;;;;;;3.74;100.00;97460.19;5158316;27;20046;-61
2023/03/03 11:38:58;;;;;;;4.00;2.42;;;;;;;4.18;100.00;97441.53;5158145;27;20072;-64
2023/03/03 11:41:31;;;;;;;4.80;2.40;;;;;;;4.52;100.00;97457.91;5158508;27;20111;-67
2023/03/03 11:44:06;;;;;;;5.97;2.60;;;;;;;4.92;100.00;97470.06;5158027;27;20328;-68
2023/03/03 11:46:39;;;;;;;9.13;2.58;;;;;;;4.90;100.00;97497.59;5158337;27;20115;-64
2023/03/03 11:49:15;;;;;;;4.65;2.63;;;;;;;5.22;100.00;97531.75;5158243;27;20103;-64